Time;durP1;ratioP1;P1;durP2;ratioP2;P2;SDS_P1;SDS_P2;PMS_P1;PMS_P2;Temp;Humidity;BMP_temperature;BMP_pressure;BME280_temperature;BME280_humidity;BME280_pressure;Samples;Min_cycle;Max_cycle;Signal;HPM_P1;HPM_P2
2021/03/13 00:02:57;;;;;;;7.07;4.15;;;;;;;3.98;75.43;98968.94;8535874;33;20692;-73
2021/03/13 00:08:00;;;;;;;3.88;2.88;;;;;;;4.16;75.33;98962.22;8537931;33;20427;-73
2021/03/13 00:13:04;;;;;;;4.97;3.13;;;;;;;4.05;75.47;98953.38;8540396;33;20144;-72
2021/03/13 00:18:07;;;;;;;3.25;2.35;;;;;;;4.18;74.44;98954.97;8536681;33;20181;-72
2021/03/13 00:23:10;;;;;;;8.40;3.75;;;;;;;4.15;74.40;98952.56;8538326;33;20139;-72
2021/03/13 00:28:13;;;;;;;8.35;3.05;;;;;;;4.12;74.11;98946.63;8516083;33;20968;-73
2021/03/13 00:33:18;;;;;;;7.00;3.30;;;;;;;4.32;73.16;98953.91;8544799;33;20211;-73
2021/03/13 00:38:23;;;;;;;6.88;3.75;;;;;;;4.21;73.58;98943.25;8518406;33;20143;-73
2021/03/13 00:43:26;;;;;;;9.93;4.88;;;;;;;4.42;73.94;98937.25;8537933;33;20425;-73
2021/03/13 00:48:28;;;;;;;4.72;2.70;;;;;;;4.36;73.05;98935.88;8541077;33;20479;-73
2021/03/13 00:53:30;;;;;;;5.60;2.88;;;;;;;4.43;72.34;98945.09;8519775;33;20547;-73
2021/03/13 00:58:34;;;;;;;6.33;4.20;;;;;;;4.49;72.93;98919.81;8544431;33;20410;-73
2021/03/13 01:03:39;;;;;;;6.82;3.72;;;;;;;4.28;72.47;98925.00;8543787;33;20420;-73
2021/03/13 01:08:44;;;;;;;5.28;2.90;;;;;;;4.44;72.17;98920.19;8519212;33;20495;-73
2021/03/13 01:13:53;;;;;;;4.72;2.53;;;;;;;4.29;72.46;98916.09;8541051;33;20968;-73
2021/03/13 01:18:59;;;;;;;7.35;3.33;;;;;;;4.58;71.40;98903.13;8516529;33;21332;-73
2021/03/13 01:24:04;;;;;;;6.68;3.30;;;;;;;4.74;70.71;98902.75;8514600;33;22080;-73
2021/03/13 01:29:12;;;;;;;5.53;2.88;;;;;;;4.64;70.74;98896.50;8517747;33;20526;-73
2021/03/13 01:34:27;;;;;;;7.63;3.80;;;;;;;4.54;70.85;98873.28;8521799;33;20944;-75
2021/03/13 01:39:38;;;;;;;6.45;2.33;;;;;;;4.57;70.35;98881.00;8524142;33;20152;-73
2021/03/13 01:44:46;;;;;;;7.45;4.80;;;;;;;4.69;70.47;98865.03;8522517;33;20399;-73
2021/03/13 01:49:52;;;;;;;9.55;4.32;;;;;;;4.94;69.76;98853.28;8519382;33;20192;-73
2021/03/13 01:55:00;;;;;;;9.10;3.95;;;;;;;4.64;70.03;98848.63;8517162;33;20421;-74
2021/03/13 02:00:09;;;;;;;5.88;3.30;;;;;;;5.01;69.45;98841.16;8538932;33;20184;-73
2021/03/13 02:05:21;;;;;;;7.00;3.40;;;;;;;5.16;68.21;98823.09;8541951;33;20413;-73
2021/03/13 02:10:34;;;;;;;3.20;2.90;;;;;;;5.14;68.32;98817.06;8545750;33;20937;-73
2021/03/13 02:15:49;;;;;;;4.68;2.80;;;;;;;4.94;69.08;98811.53;8524763;33;20166;-74
2021/03/13 02:21:07;;;;;;;5.82;2.95;;;;;;;5.26;68.02;98800.88;8468555;33;21601;-73
2021/03/13 02:26:30;;;;;;;7.20;3.42;;;;;;;5.12;68.54;98784.38;8498376;33;20454;-74
2021/03/13 02:31:59;;;;;;;10.05;3.47;;;;;;;4.98;68.40;98770.38;8498147;33;20649;-73
2021/03/13 02:37:10;;;;;;;7.82;3.20;;;;;;;5.17;67.94;98763.56;8488863;33;21990;-73
2021/03/13 02:42:18;;;;;;;6.68;3.10;;;;;;;5.04;67.96;98748.59;8467982;33;20176;-73
2021/03/13 02:47:24;;;;;;;6.03;3.08;;;;;;;5.30;67.68;98726.09;8482423;33;20164;-74
2021/03/13 02:52:34;;;;;;;10.15;2.90;;;;;;;5.24;67.28;98728.31;8506312;33;20650;-74
2021/03/13 02:57:45;;;;;;;7.97;3.05;;;;;;;5.18;67.89;98710.16;8534573;33;20477;-73
2021/03/13 03:02:54;;;;;;;4.97;2.80;;;;;;;5.23;67.57;98699.13;8550114;33;20787;-73
2021/03/13 03:08:03;;;;;;;3.03;2.50;;;;;;;5.20;67.57;98686.94;8534443;33;20442;-73
2021/03/13 03:13:08;;;;;;;4.25;3.33;;;;;;;5.29;67.30;98685.28;8537578;33;20433;-73
2021/03/13 03:18:16;;;;;;;7.95;2.83;;;;;;;5.28;67.39;98668.47;8536881;33;20156;-73
2021/03/13 03:23:20;;;;;;;6.78;2.90;;;;;;;5.31;67.44;98663.88;8538403;33;20419;-73
2021/03/13 03:28:25;;;;;;;4.03;2.88;;;;;;;5.02;67.90;98652.13;8536497;33;20422;-73
2021/03/13 03:33:41;;;;;;;1.92;1.40;;;;;;;4.83;68.48;98644.81;8535685;33;20681;-72
2021/03/13 03:38:46;;;;;;;5.60;2.83;;;;;;;5.21;67.79;98637.19;8536269;33;20229;-73
2021/03/13 03:44:01;;;;;;;3.38;2.05;;;;;;;5.00;68.90;98623.94;8535347;33;20176;-73
2021/03/13 03:49:09;;;;;;;2.58;2.38;;;;;;;5.01;69.92;98633.59;8534251;33;20152;-73
2021/03/13 03:54:20;;;;;;;2.53;2.17;;;;;;;4.38;72.77;98631.72;8541497;33;20422;-73
2021/03/13 03:59:23;;;;;;;1.27;1.20;;;;;;;4.20;74.22;98621.78;8592651;33;20496;-73
2021/03/13 04:04:29;;;;;;;4.68;2.38;;;;;;;3.90;76.39;98618.88;8620213;33;20402;-73
2021/03/13 04:09:32;;;;;;;3.65;2.72;;;;;;;4.00;76.66;98607.50;8623115;33;20151;-74
2021/03/13 04:14:36;;;;;;;5.15;3.30;;;;;;;3.87;77.37;98607.66;8620791;33;20423;-74
2021/03/13 04:19:39;;;;;;;3.78;2.50;;;;;;;4.01;77.65;98585.28;8616963;33;20472;-74
2021/03/13 04:24:45;;;;;;;1.60;1.50;;;;;;;3.66;78.24;98587.19;8616599;33;20543;-74
2021/03/13 04:29:47;;;;;;;4.10;2.25;;;;;;;3.95;77.82;98576.84;8617404;33;22390;-74
2021/03/13 04:34:52;;;;;;;2.28;1.67;;;;;;;3.71;78.61;98560.25;8616262;33;20420;-74
2021/03/13 04:39:54;;;;;;;3.75;2.10;;;;;;;3.60;78.82;98545.22;8619820;33;20139;-74
2021/03/13 04:44:58;;;;;;;2.83;2.50;;;;;;;3.61;79.21;98538.91;8621675;33;20509;-74
2021/03/13 04:50:01;;;;;;;1.70;1.60;;;;;;;3.54;79.83;98510.31;8622504;33;20409;-74
2021/03/13 04:55:06;;;;;;;2.42;2.22;;;;;;;3.52;80.06;98506.97;8595331;33;21562;-74
2021/03/13 05:00:12;;;;;;;4.18;2.38;;;;;;;3.44;80.27;98489.03;8561378;33;20475;-74
2021/03/13 05:05:15;;;;;;;4.40;1.97;;;;;;;3.44;80.11;98471.28;8561580;33;20427;-74
2021/03/13 05:10:17;;;;;;;2.45;1.52;;;;;;;3.47;79.73;98455.09;8572212;33;20180;-74
2021/03/13 05:15:20;;;;;;;2.17;1.92;;;;;;;3.56;79.93;98448.19;8565087;33;20494;-74
2021/03/13 05:20:23;;;;;;;2.80;2.22;;;;;;;3.52;80.36;98443.28;8558690;33;20550;-74
2021/03/13 05:25:26;;;;;;;4.63;2.05;;;;;;;3.66;80.22;98427.03;8546547;33;20370;-74
2021/03/13 05:30:28;;;;;;;1.80;1.60;;;;;;;3.56;79.84;98399.56;8556810;33;20491;-75
2021/03/13 05:35:31;;;;;;;2.43;2.10;;;;;;;3.50;80.74;98379.69;8537663;33;20403;-74
2021/03/13 05:40:33;;;;;;;1.75;1.65;;;;;;;3.49;80.83;98372.69;8563689;33;20413;-75
2021/03/13 05:45:36;;;;;;;2.30;1.50;;;;;;;3.39;81.10;98367.31;8559266;33;21487;-75
2021/03/13 05:50:39;;;;;;;1.50;1.40;;;;;;;3.40;81.32;98344.25;8549372;33;20440;-75
2021/03/13 05:55:43;;;;;;;3.40;2.10;;;;;;;3.65;80.22;98327.97;8548777;33;21010;-75
2021/03/13 06:00:45;;;;;;;2.40;1.40;;;;;;;3.55;81.38;98319.09;8547162;33;20498;-75
2021/03/13 06:05:48;;;;;;;1.55;1.45;;;;;;;3.47;81.69;98279.06;8548782;33;20188;-74
2021/03/13 06:10:51;;;;;;;2.92;1.67;;;;;;;3.57;81.70;98271.19;8549834;33;20327;-74
2021/03/13 06:15:55;;;;;;;1.70;1.60;;;;;;;3.63;81.34;98263.53;8548771;33;20411;-74
2021/03/13 06:20:58;;;;;;;0.98;0.98;;;;;;;3.60;81.62;98247.03;8559203;33;20159;-73
2021/03/13 06:26:00;;;;;;;0.80;0.80;;;;;;;3.72;81.21;98237.97;8536261;33;20182;-74
2021/03/13 06:31:07;;;;;;;2.00;1.15;;;;;;;3.66;81.50;98230.56;8559774;33;20708;-74
2021/03/13 06:36:22;;;;;;;3.55;2.10;;;;;;;3.72;81.77;98209.59;8562949;33;20407;-74
2021/03/13 06:41:24;;;;;;;1.00;1.00;;;;;;;3.81;81.33;98191.19;8566016;33;20948;-74
2021/03/13 06:46:30;;;;;;;1.20;1.20;;;;;;;3.56;82.27;98185.38;8564624;33;20234;-73
2021/03/13 06:51:37;;;;;;;0.80;0.80;;;;;;;3.92;80.91;98173.34;8570778;33;20793;-73
2021/03/13 06:56:43;;;;;;;1.30;1.20;;;;;;;3.86;81.00;98155.28;8556537;33;21116;-74
2021/03/13 07:01:45;;;;;;;0.93;0.93;;;;;;;3.92;80.46;98127.34;8544145;33;20826;-74
2021/03/13 07:06:49;;;;;;;0.60;0.60;;;;;;;3.70;80.45;98137.25;8543215;33;20312;-75
2021/03/13 07:11:51;;;;;;;1.15;0.98;;;;;;;3.88;80.95;98115.31;8541034;33;20409;-75
2021/03/13 07:16:54;;;;;;;0.75;0.75;;;;;;;3.79;80.92;98100.22;8540105;33;20881;-74
2021/03/13 07:21:59;;;;;;;0.98;0.98;;;;;;;4.17;80.68;98079.00;8546907;33;20490;-75
2021/03/13 07:27:05;;;;;;;0.65;0.65;;;;;;;4.06;80.77;98087.13;8539873;33;20429;-74
2021/03/13 07:32:14;;;;;;;0.73;0.73;;;;;;;4.32;80.02;98084.72;8544796;33;20440;-75
2021/03/13 07:37:19;;;;;;;0.80;0.80;;;;;;;4.12;80.23;98083.91;8536098;33;20477;-75
2021/03/13 07:42:23;;;;;;;2.05;1.00;;;;;;;4.43;80.15;98073.13;8560351;33;20186;-74
2021/03/13 07:47:27;;;;;;;0.90;0.82;;;;;;;4.32;80.18;98074.09;8595209;33;20416;-73
2021/03/13 07:52:31;;;;;;;0.90;0.90;;;;;;;4.65;79.66;98050.69;8605458;33;20932;-73
2021/03/13 07:57:36;;;;;;;1.10;1.00;;;;;;;4.75;78.87;98034.72;8535344;33;20148;-73
2021/03/13 08:02:41;;;;;;;2.72;1.00;;;;;;;4.96;78.42;98034.47;8543834;33;20424;-72
2021/03/13 08:08:03;;;;;;;0.73;0.73;;;;;;;5.04;78.05;98030.13;8539027;33;20455;-72
2021/03/13 08:13:06;;;;;;;0.73;0.73;;;;;;;4.83;78.77;98024.19;8533670;33;20206;-72
2021/03/13 08:18:12;;;;;;;2.47;1.00;;;;;;;4.97;77.79;97999.78;8533773;33;20854;-71
2021/03/13 08:23:22;;;;;;;1.05;0.88;;;;;;;5.20;77.63;98010.88;8535767;33;20529;-71
2021/03/13 08:28:55;;;;;;;0.75;0.75;;;;;;;5.21;76.83;98003.72;8537638;33;20236;-72
2021/03/13 08:34:01;;;;;;;0.85;0.80;;;;;;;4.66;79.25;98060.31;8538328;33;20675;-71
2021/03/13 08:39:07;;;;;;;0.65;0.65;;;;;;;4.73;80.52;98047.31;8537587;33;20282;-72
2021/03/13 08:44:11;;;;;;;1.15;1.00;;;;;;;4.18;85.32;98112.56;8531864;33;20399;-72
2021/03/13 08:49:45;;;;;;;2.38;1.17;;;;;;;3.60;83.54;98091.22;8531360;33;20434;-72
2021/03/13 08:54:50;;;;;;;0.95;0.68;;;;;;;3.58;83.22;98095.00;8530980;33;20612;-71
2021/03/13 09:00:00;;;;;;;0.82;0.82;;;;;;;3.62;81.46;98102.56;8507331;33;20468;-71
2021/03/13 09:05:07;;;;;;;3.20;1.00;;;;;;;4.06;80.99;98121.66;8532991;33;20144;-71
2021/03/13 09:10:11;;;;;;;1.58;0.88;;;;;;;4.08;80.15;98089.63;8534103;33;20967;-71
2021/03/13 09:15:15;;;;;;;1.35;1.25;;;;;;;4.17;78.47;98094.13;8511981;33;21986;-73
2021/03/13 09:20:19;;;;;;;2.70;1.15;;;;;;;4.52;78.99;98105.97;8478282;33;20639;-71
2021/03/13 09:25:22;;;;;;;2.92;2.20;;;;;;;4.77;78.05;98109.84;8494461;33;20426;-71
2021/03/13 09:30:27;;;;;;;2.45;1.30;;;;;;;4.92;74.51;98067.69;8513775;33;20184;-71
2021/03/13 09:35:30;;;;;;;1.80;1.65;;;;;;;5.12;73.62;98097.78;8542077;33;21954;-71
2021/03/13 09:40:33;;;;;;;3.53;2.15;;;;;;;5.04;70.79;98109.97;8541229;33;21309;-72
2021/03/13 09:45:35;;;;;;;1.30;1.20;;;;;;;5.21;71.65;98089.75;8540603;33;20410;-72
2021/03/13 09:50:39;;;;;;;4.80;1.83;;;;;;;5.52;70.33;98121.44;8539661;33;20572;-72
2021/03/13 09:55:45;;;;;;;4.80;1.38;;;;;;;5.36;69.07;98103.41;8501770;33;20231;-72
2021/03/13 10:00:48;;;;;;;3.17;1.80;;;;;;;5.58;68.83;98109.34;8478140;33;20156;-71
2021/03/13 10:05:52;;;;;;;3.83;1.80;;;;;;;5.68;69.33;98083.50;8476532;33;20354;-72
2021/03/13 10:10:55;;;;;;;1.45;1.30;;;;;;;6.06;67.58;98089.53;8474253;33;20463;-72
2021/03/13 10:15:57;;;;;;;4.93;1.67;;;;;;;5.95;66.94;98088.81;8472288;33;20849;-72
2021/03/13 10:21:00;;;;;;;2.47;2.17;;;;;;;6.09;66.73;98070.63;8472239;33;20452;-72
2021/03/13 10:26:06;;;;;;;8.45;1.67;;;;;;;5.90;65.19;98067.09;8474015;33;20258;-72
2021/03/13 10:31:29;;;;;;;1.42;1.27;;;;;;;5.86;64.02;98078.19;8815859;32;20507;-72
2021/03/13 10:36:43;;;;;;;2.72;1.55;;;;;;;5.90;64.15;98106.22;8740626;33;20147;-72
2021/03/13 10:41:50;;;;;;;2.08;1.20;;;;;;;6.01;63.04;98067.88;8741444;33;20186;-72
2021/03/13 10:46:53;;;;;;;3.15;1.80;;;;;;;5.94;63.84;98057.78;8740311;33;20163;-72
2021/03/13 10:51:56;;;;;;;3.70;1.48;;;;;;;6.27;61.91;98051.94;8742229;33;20148;-72
2021/03/13 10:57:07;;;;;;;2.10;1.90;;;;;;;7.44;59.82;98036.34;8741144;33;21623;-73
2021/03/13 11:02:10;;;;;;;4.82;1.90;;;;;;;7.15;59.93;98025.19;8739330;33;20143;-72
2021/03/13 11:07:13;;;;;;;3.05;2.00;;;;;;;6.89;61.00;98033.25;8740122;33;20162;-72
2021/03/13 11:12:16;;;;;;;7.35;3.10;;;;;;;6.20;61.16;98022.41;8679667;33;20430;-72
2021/03/13 11:17:19;;;;;;;14.57;2.22;;;;;;;6.46;61.31;98074.94;8491363;33;20908;-72
2021/03/13 11:22:22;;;;;;;4.18;1.80;;;;;;;6.12;62.76;98110.28;8490869;33;20135;-72
2021/03/13 11:27:24;;;;;;;3.22;1.92;;;;;;;4.33;72.40;98072.28;8516690;33;20423;-72
2021/03/13 11:32:27;;;;;;;3.83;1.20;;;;;;;1.19;87.02;98160.72;8656720;33;20410;-74
2021/03/13 11:37:30;;;;;;;3.73;1.20;;;;;;;0.64;88.24;98188.72;8636921;33;20854;-74
2021/03/13 11:42:32;;;;;;;3.03;1.73;;;;;;;0.50;89.51;98134.28;8794126;33;20215;-74
2021/03/13 11:47:35;;;;;;;2.57;1.50;;;;;;;0.91;87.88;98112.63;8681778;33;20163;-74
2021/03/13 11:52:39;;;;;;;2.43;1.30;;;;;;;1.44;86.72;98110.22;8701986;33;20635;-75
2021/03/13 11:57:42;;;;;;;2.63;1.50;;;;;;;1.75;85.79;98070.69;8856599;33;20230;-75
2021/03/13 12:02:45;;;;;;;3.07;1.70;;;;;;;1.88;85.61;98074.03;8856930;33;20229;-75
2021/03/13 12:07:48;;;;;;;3.83;1.77;;;;;;;3.14;86.92;98058.13;8816916;33;20314;-74
2021/03/13 12:12:50;;;;;;;5.00;2.07;;;;;;;4.73;82.00;98063.28;8796332;33;21523;-74
2021/03/13 12:17:54;;;;;;;4.60;1.75;;;;;;;6.03;81.94;98041.88;8796856;33;20663;-74
2021/03/13 12:22:56;;;;;;;1.45;1.35;;;;;;;6.39;74.32;98042.72;8797122;33;20235;-74
2021/03/13 12:27:58;;;;;;;2.20;1.80;;;;;;;4.52;77.08;98061.63;8797271;33;20231;-74
2021/03/13 12:33:02;;;;;;;3.20;2.63;;;;;;;5.83;76.20;98035.88;8796435;33;20331;-74
2021/03/13 12:38:04;;;;;;;2.70;2.03;;;;;;;4.58;76.44;98017.66;8797299;33;20279;-74
2021/03/13 12:43:27;;;;;;;6.68;3.33;;;;;;;4.61;79.13;98004.09;8796002;33;20230;-73
2021/03/13 12:48:30;;;;;;;5.50;3.10;;;;;;;4.50;77.10;97998.94;8795421;33;20230;-72
2021/03/13 12:53:32;;;;;;;3.13;1.75;;;;;;;5.99;73.09;98019.22;8795678;33;20303;-73
2021/03/13 12:58:34;;;;;;;8.65;2.53;;;;;;;5.32;72.03;98047.94;8755510;33;20137;-72
2021/03/13 13:03:37;;;;;;;2.90;1.98;;;;;;;6.04;72.16;98023.09;8764032;33;20241;-73
2021/03/13 13:08:40;;;;;;;2.60;1.92;;;;;;;7.20;68.30;97994.34;8801491;33;20408;-73
2021/03/13 13:13:43;;;;;;;3.10;2.22;;;;;;;7.10;66.60;98011.47;8799767;33;20312;-73
2021/03/13 13:18:47;;;;;;;2.92;2.20;;;;;;;5.71;66.77;98052.06;8795403;33;20219;-73
2021/03/13 13:23:49;;;;;;;5.45;1.95;;;;;;;5.43;69.52;98013.13;8794150;33;20262;-73
2021/03/13 13:28:51;;;;;;;4.25;2.25;;;;;;;5.11;69.49;98070.31;8793034;33;20227;-73
2021/03/13 13:33:54;;;;;;;3.35;2.15;;;;;;;4.97;68.47;98049.50;8794744;33;20254;-74
2021/03/13 13:38:57;;;;;;;8.52;3.25;;;;;;;4.97;69.21;98058.31;8796152;33;20261;-75
2021/03/13 13:44:00;;;;;;;7.00;2.70;;;;;;;4.35;67.96;98043.75;8781304;33;20254;-74
2021/03/13 13:49:03;;;;;;;2.95;1.88;;;;;;;4.36;68.74;98037.44;8794086;33;20293;-74
2021/03/13 13:54:06;;;;;;;1.55;1.35;;;;;;;3.86;71.08;97987.97;8791162;33;20227;-74
2021/03/13 13:59:08;;;;;;;1.70;1.10;;;;;;;3.83;71.83;98045.84;8793909;33;20311;-74
2021/03/13 14:04:11;;;;;;;1.13;1.02;;;;;;;3.87;70.77;98060.53;8793368;33;20219;-74
2021/03/13 14:09:14;;;;;;;1.50;1.02;;;;;;;4.01;70.35;98052.16;8792250;33;20223;-75
2021/03/13 14:14:16;;;;;;;2.22;1.55;;;;;;;4.30;69.99;98070.72;8793718;33;20622;-74
2021/03/13 14:19:19;;;;;;;1.25;1.15;;;;;;;4.15;70.59;98094.25;8793787;33;20223;-74
2021/03/13 14:24:21;;;;;;;1.47;1.17;;;;;;;4.32;70.16;98094.53;8793142;33;20322;-74
2021/03/13 14:29:27;;;;;;;8.45;1.75;;;;;;;4.35;71.04;98091.59;8794247;33;21378;-75
2021/03/13 14:34:30;;;;;;;2.75;1.95;;;;;;;6.22;66.85;98060.38;8793652;33;20235;-74
2021/03/13 14:39:33;;;;;;;6.22;2.42;;;;;;;6.07;64.92;98069.91;8794059;33;20226;-74
2021/03/13 14:44:35;;;;;;;1.60;1.50;;;;;;;4.86;69.11;98039.03;8792968;33;20314;-74
2021/03/13 14:49:39;;;;;;;7.78;2.25;;;;;;;4.80;69.63;98053.72;8793514;33;20223;-74
2021/03/13 14:54:43;;;;;;;4.57;2.35;;;;;;;4.58;70.56;98060.19;8795855;33;20750;-74
2021/03/13 14:59:45;;;;;;;6.45;3.22;;;;;;;3.85;76.63;98042.06;8793729;33;21523;-73
2021/03/13 15:04:48;;;;;;;3.38;2.80;;;;;;;3.98;77.10;98031.19;8792723;33;20630;-74
2021/03/13 15:09:51;;;;;;;8.00;3.65;;;;;;;6.36;69.34;98030.53;8793472;33;20276;-75
2021/03/13 15:14:53;;;;;;;4.07;2.55;;;;;;;6.20;68.89;98002.88;8793284;33;20235;-75
2021/03/13 15:19:56;;;;;;;11.07;3.28;;;;;;;4.92;71.97;98039.28;8798367;33;20457;-75
2021/03/13 15:24:59;;;;;;;7.78;3.10;;;;;;;4.92;72.42;98047.25;8797073;33;20248;-74
2021/03/13 15:30:01;;;;;;;10.00;3.97;;;;;;;5.00;71.98;98055.38;8798096;33;20234;-74
2021/03/13 15:35:06;;;;;;;3.92;3.05;;;;;;;5.08;71.47;98057.31;8797484;33;20389;-74
2021/03/13 15:40:11;;;;;;;5.03;2.72;;;;;;;4.97;69.52;98050.31;8797966;33;20886;-74
2021/03/13 15:45:15;;;;;;;2.95;2.65;;;;;;;3.62;78.34;98072.50;8800411;33;20227;-74
2021/03/13 15:50:21;;;;;;;6.30;2.65;;;;;;;3.10;82.96;98104.47;8784864;33;20230;-73
2021/03/13 15:55:24;;;;;;;4.07;2.43;;;;;;;2.50;87.32;98128.06;8795629;33;20280;-74
2021/03/13 16:00:27;;;;;;;4.07;2.20;;;;;;;2.49;88.35;98099.88;8796248;33;20759;-73
2021/03/13 16:06:45;;;;;;;7.63;2.93;;;;;;;-149.37;100.00;59372.97;8795881;33;20234;-74
2021/03/13 16:11:47;;;;;;;1.83;1.40;;;;;;;-149.37;100.00;59372.97;8704826;33;20958;-75
2021/03/13 16:16:49;;;;;;;2.07;1.53;;;;;;;-149.37;100.00;59372.97;8796352;33;20219;-75
2021/03/13 16:22:02;;;;;;;2.37;1.83;;;;;;;3.20;82.93;98100.03;8796180;33;20711;-73
2021/03/13 16:27:06;;;;;;;4.82;2.20;;;;;;;3.28;81.72;98112.63;8795661;33;20235;-73
2021/03/13 16:32:14;;;;;;;2.80;2.05;;;;;;;3.35;80.18;98142.97;8796685;33;20231;-73
2021/03/13 16:37:37;;;;;;;2.75;2.15;;;;;;;3.06;80.46;98145.47;8967930;32;20232;-73
2021/03/13 16:42:41;;;;;;;6.32;2.22;;;;;;;2.51;83.12;98219.84;8950662;32;20252;-74
2021/03/13 16:47:44;;;;;;;4.23;2.80;;;;;;;2.61;84.30;98182.88;8950312;32;21464;-74
2021/03/13 16:52:52;;;;;;;2.83;1.45;;;;;;;2.52;83.68;98186.22;8949949;32;20221;-74
2021/03/13 16:58:01;;;;;;;1.60;1.50;;;;;;;2.52;81.95;98216.22;8935307;32;20315;-74
2021/03/13 17:03:06;;;;;;;1.73;1.63;;;;;;;2.66;81.22;98211.63;8950383;32;21320;-74
2021/03/13 17:08:10;;;;;;;1.60;1.50;;;;;;;2.66;80.15;98201.00;8934835;32;20290;-74
2021/03/13 17:13:12;;;;;;;1.10;1.00;;;;;;;2.54;79.06;98193.13;8923111;32;20248;-73
2021/03/13 17:18:21;;;;;;;1.63;1.53;;;;;;;2.57;77.94;98222.00;8946177;32;20217;-73
2021/03/13 17:23:26;;;;;;;1.47;1.10;;;;;;;2.70;76.22;98200.66;8931066;32;20676;-72
2021/03/13 17:28:28;;;;;;;2.07;1.10;;;;;;;2.69;75.43;98196.31;8881228;32;20271;-73
2021/03/13 17:33:31;;;;;;;1.00;1.00;;;;;;;2.79;74.73;98199.03;8911236;32;20260;-72
2021/03/13 17:38:35;;;;;;;2.80;1.05;;;;;;;2.96;74.72;98224.13;8889673;32;20270;-73
2021/03/13 17:43:44;;;;;;;2.13;1.13;;;;;;;3.03;73.51;98214.69;8904856;32;20232;-72
2021/03/13 17:48:47;;;;;;;1.27;1.20;;;;;;;3.06;73.37;98252.41;8916732;32;21560;-72
2021/03/13 17:53:50;;;;;;;2.43;1.50;;;;;;;3.09;73.61;98234.56;8922509;32;20225;-73
2021/03/13 17:58:56;;;;;;;4.37;1.30;;;;;;;3.12;73.81;98229.81;8922446;32;20221;-73
2021/03/13 18:04:02;;;;;;;2.37;1.50;;;;;;;3.04;72.92;98254.38;8910481;32;20260;-73
2021/03/13 18:09:07;;;;;;;2.63;2.40;;;;;;;3.26;72.65;98264.00;8928699;32;20225;-74
2021/03/13 18:14:11;;;;;;;1.80;1.70;;;;;;;2.70;77.70;98293.44;8938494;32;20279;-73
2021/03/13 18:19:23;;;;;;;3.57;1.70;;;;;;;2.04;82.11;98284.63;8915748;32;20208;-75
2021/03/13 18:24:28;;;;;;;2.30;1.90;;;;;;;2.17;82.05;98330.34;8939692;32;20249;-75
2021/03/13 18:29:31;;;;;;;2.00;1.60;;;;;;;2.12;82.90;98340.47;8940063;32;20221;-74
2021/03/13 18:34:41;;;;;;;2.40;1.57;;;;;;;2.01;82.31;98364.31;8918408;33;20218;-75
2021/03/13 18:39:53;;;;;;;3.87;1.90;;;;;;;2.15;81.89;98356.13;8886832;32;20233;-76
2021/03/13 18:44:56;;;;;;;2.73;2.00;;;;;;;2.07;81.95;98354.06;8902337;32;20230;-76
2021/03/13 18:49:59;;;;;;;2.93;2.53;;;;;;;2.12;81.51;98381.03;8901368;32;20282;-75
2021/03/13 18:55:07;;;;;;;2.87;1.93;;;;;;;2.05;81.13;98365.72;8927185;32;21857;-75
2021/03/13 19:00:20;;;;;;;3.67;2.37;;;;;;;2.10;80.19;98369.72;8930409;32;20227;-74
2021/03/13 19:05:26;;;;;;;2.87;2.30;;;;;;;2.17;79.33;98367.44;8925362;32;20676;-74
2021/03/13 19:10:34;;;;;;;4.07;2.10;;;;;;;2.25;78.48;98366.81;8951873;32;20225;-74
2021/03/13 19:15:38;;;;;;;2.20;1.83;;;;;;;2.31;78.26;98376.94;8939499;32;20264;-74
2021/03/13 19:20:40;;;;;;;4.07;1.90;;;;;;;2.24;77.32;98391.63;8955229;32;20212;-74
2021/03/13 19:25:54;;;;;;;3.80;1.63;;;;;;;2.45;76.28;98374.03;8905088;32;20308;-74
2021/03/13 19:31:02;;;;;;;3.57;1.40;;;;;;;2.63;76.59;98377.06;8920896;32;20221;-74
2021/03/13 19:36:06;;;;;;;2.97;2.00;;;;;;;2.77;78.55;98390.06;8896323;32;20236;-73
2021/03/13 19:41:10;;;;;;;1.40;1.20;;;;;;;2.41;79.28;98415.00;8917498;32;20832;-74
2021/03/13 19:46:12;;;;;;;2.97;1.60;;;;;;;2.61;79.49;98437.31;8916198;32;20289;-74
2021/03/13 19:51:15;;;;;;;3.13;1.90;;;;;;;2.48;80.44;98439.22;8917457;33;20305;-74
2021/03/13 19:56:18;;;;;;;1.60;1.50;;;;;;;2.03;81.83;98470.94;8916347;32;20249;-74
2021/03/13 20:01:20;;;;;;;3.60;1.80;;;;;;;1.84;81.86;98479.44;8913495;32;20221;-74
2021/03/13 20:06:22;;;;;;;4.83;2.10;;;;;;;1.69;82.38;98463.75;8912818;32;20718;-76
2021/03/13 20:11:26;;;;;;;2.10;1.80;;;;;;;1.76;81.46;98485.31;8915419;32;20218;-75
2021/03/13 20:16:29;;;;;;;2.77;1.90;;;;;;;1.75;80.13;98469.53;8907612;32;20233;-75
2021/03/13 20:21:32;;;;;;;1.50;1.40;;;;;;;1.95;78.90;98475.03;8748894;32;20446;-75
2021/03/13 20:26:35;;;;;;;1.83;1.40;;;;;;;1.88;78.53;98470.31;8696568;32;20153;-75
2021/03/13 20:31:37;;;;;;;3.77;1.47;;;;;;;1.94;78.31;98496.31;8680418;32;20178;-75
2021/03/13 20:36:40;;;;;;;1.67;1.57;;;;;;;1.93;78.19;98490.19;8689221;32;20409;-75
2021/03/13 20:41:43;;;;;;;3.07;1.83;;;;;;;1.95;78.16;98498.03;8682155;32;20194;-75
2021/03/13 20:46:45;;;;;;;2.30;1.70;;;;;;;1.95;77.32;98530.63;8661861;32;20237;-74
2021/03/13 20:51:48;;;;;;;1.83;1.33;;;;;;;1.84;77.22;98496.19;8697322;32;20203;-75
2021/03/13 20:56:51;;;;;;;2.43;1.53;;;;;;;2.23;76.80;98522.41;8704969;32;20189;-74
2021/03/13 21:01:53;;;;;;;1.50;1.40;;;;;;;2.14;76.87;98514.19;8684664;32;20146;-74
2021/03/13 21:06:56;;;;;;;6.03;1.60;;;;;;;2.17;76.39;98502.53;8698632;32;21402;-74
2021/03/13 21:11:59;;;;;;;6.47;2.10;;;;;;;1.98;76.80;98529.56;8682738;32;20417;-73
2021/03/13 21:17:01;;;;;;;4.13;1.60;;;;;;;2.17;76.58;98544.91;8678897;32;20407;-74
2021/03/13 21:22:05;;;;;;;2.90;2.70;;;;;;;2.43;75.62;98544.72;8680293;32;20690;-74
2021/03/13 21:27:08;;;;;;;2.23;1.50;;;;;;;2.09;75.54;98565.84;8689189;32;20655;-74
2021/03/13 21:32:10;;;;;;;1.47;1.43;;;;;;;2.31;74.97;98555.31;8682368;32;20283;-74
2021/03/13 21:37:13;;;;;;;4.83;1.27;;;;;;;2.32;74.58;98564.09;8691686;32;20413;-74
2021/03/13 21:42:17;;;;;;;2.73;1.70;;;;;;;2.40;74.00;98564.34;8654924;32;21012;-74
2021/03/13 21:47:19;;;;;;;5.83;1.43;;;;;;;2.26;74.67;98593.72;8658398;32;20423;-74
2021/03/13 21:52:21;;;;;;;2.53;1.53;;;;;;;2.59;74.60;98598.28;8652349;32;20143;-74
2021/03/13 21:57:25;;;;;;;1.63;1.10;;;;;;;2.68;73.90;98596.72;8649347;32;20685;-74
2021/03/13 22:02:27;;;;;;;4.83;2.13;;;;;;;2.65;74.27;98597.81;8653338;32;22287;-74
2021/03/13 22:07:30;;;;;;;6.63;2.33;;;;;;;2.52;74.28;98597.84;8651277;32;20217;-73
2021/03/13 22:12:33;;;;;;;2.80;1.73;;;;;;;2.60;74.08;98613.22;8648844;32;20409;-74
2021/03/13 22:17:35;;;;;;;4.50;3.07;;;;;;;2.56;74.40;98582.63;8655071;32;21049;-74
2021/03/13 22:22:38;;;;;;;4.67;2.10;;;;;;;2.74;73.90;98598.91;8654743;32;20177;-74
2021/03/13 22:27:42;;;;;;;6.37;2.47;;;;;;;2.99;72.37;98604.00;8657415;32;20480;-74
2021/03/13 22:32:45;;;;;;;2.60;1.83;;;;;;;2.89;72.56;98605.69;8647379;32;20380;-74
2021/03/13 22:37:48;;;;;;;4.63;2.77;;;;;;;2.81;72.50;98632.78;8649551;32;20461;-74
2021/03/13 22:42:51;;;;;;;5.67;2.17;;;;;;;3.14;72.23;98609.91;8650606;32;20411;-74
2021/03/13 22:47:53;;;;;;;4.90;2.73;;;;;;;2.92;72.86;98615.22;8650196;32;20502;-74
2021/03/13 22:52:56;;;;;;;7.07;2.95;;;;;;;3.34;71.53;98616.28;8652085;32;20412;-74
2021/03/13 22:57:59;;;;;;;2.45;1.98;;;;;;;3.03;72.63;98613.41;8651370;32;20521;-75
2021/03/13 23:03:01;;;;;;;7.10;3.97;;;;;;;2.98;72.98;98612.91;8652034;32;20393;-74
2021/03/13 23:08:08;;;;;;;3.80;2.10;;;;;;;2.94;73.31;98626.56;8649869;32;20170;-74
2021/03/13 23:13:12;;;;;;;7.57;3.60;;;;;;;2.95;72.71;98618.47;8649454;32;20400;-74
2021/03/13 23:18:14;;;;;;;6.50;2.90;;;;;;;2.92;73.06;98616.06;8674357;32;20466;-74
2021/03/13 23:23:17;;;;;;;8.70;3.33;;;;;;;3.25;71.78;98632.97;8651624;32;20449;-74
2021/03/13 23:28:21;;;;;;;3.10;2.47;;;;;;;2.97;72.71;98624.50;8654797;32;20145;-74
2021/03/13 23:33:27;;;;;;;7.43;2.77;;;;;;;3.10;72.73;98629.72;8666666;32;20465;-74
2021/03/13 23:38:32;;;;;;;10.35;2.78;;;;;;;3.10;72.26;98632.34;8677841;32;20441;-75
2021/03/13 23:43:37;;;;;;;6.90;3.20;;;;;;;2.98;72.85;98625.34;8645259;32;20430;-74
2021/03/13 23:48:40;;;;;;;4.80;2.63;;;;;;;3.21;72.44;98639.44;8640111;32;20189;-74
2021/03/13 23:53:43;;;;;;;3.85;2.20;;;;;;;3.09;72.49;98653.69;8652338;32;20178;-75
2021/03/13 23:58:46;;;;;;;5.73;2.87;;;;;;;3.20;72.26;98656.34;8653210;32;20463;-75
